createdAt,value
2023-01-17T00:02:01.337Z,1.70
2023-01-17T00:04:47.441Z,1.80
2023-01-17T00:07:35.082Z,1.80
2023-01-17T00:10:07.492Z,1.70
2023-01-17T00:12:36.725Z,1.70
2023-01-17T00:15:08.414Z,1.70
2023-01-17T00:17:36.700Z,1.80
2023-01-17T00:20:23.206Z,1.80
2023-01-17T00:23:08.901Z,1.70
2023-01-17T00:25:57.466Z,1.80
2023-01-17T00:28:25.659Z,1.70
2023-01-17T00:30:54.313Z,1.60
2023-01-17T00:33:22.450Z,1.50
2023-01-17T00:35:50.665Z,1.50
2023-01-17T00:38:19.526Z,1.40
2023-01-17T00:40:47.826Z,1.30
2023-01-17T00:43:35.213Z,1.40
2023-01-17T00:46:22.824Z,1.40
2023-01-17T00:49:09.045Z,1.40
2023-01-17T00:51:55.797Z,1.30
2023-01-17T00:54:41.412Z,1.30
2023-01-17T00:57:27.213Z,1.40
2023-01-17T01:00:12.802Z,1.40
2023-01-17T01:03:00.273Z,1.40
2023-01-17T01:05:46.291Z,1.50
2023-01-17T01:08:39.408Z,1.50
2023-01-17T01:11:27.003Z,1.40
2023-01-17T01:14:13.182Z,1.30
2023-01-17T01:16:58.985Z,1.20
2023-01-17T01:19:46.253Z,1.20
2023-01-17T01:22:32.394Z,1.10
2023-01-17T01:25:18.790Z,1.00
2023-01-17T01:28:04.387Z,0.90
2023-01-17T01:30:50.469Z,1.00
2023-01-17T01:33:20.204Z,1.00
2023-01-17T01:35:51.856Z,0.90
2023-01-17T01:38:21.154Z,0.90
2023-01-17T01:40:52.296Z,0.80
2023-01-17T01:43:23.377Z,0.80
2023-01-17T01:45:57.461Z,0.70
2023-01-17T01:48:36.715Z,0.70
2023-01-17T01:51:10.966Z,0.70
2023-01-17T01:53:46.617Z,0.70
2023-01-17T01:56:16.510Z,0.70
2023-01-17T01:58:50.164Z,0.60
2023-01-17T02:01:19.688Z,0.50
2023-01-17T02:03:49.126Z,0.50
2023-01-17T02:06:29.991Z,0.60
2023-01-17T02:09:01.376Z,0.70
2023-01-17T02:11:29.763Z,0.70
2023-01-17T02:13:58.103Z,0.90
2023-01-17T02:16:43.080Z,0.90
2023-01-17T02:19:38.469Z,0.90
2023-01-17T02:22:27.009Z,0.70
2023-01-17T02:25:24.006Z,0.70
2023-01-17T02:28:06.054Z,0.70
2023-01-17T02:30:38.313Z,0.70
2023-01-17T02:33:26.295Z,0.70
2023-01-17T02:36:07.082Z,0.70
2023-01-17T02:38:45.052Z,0.80
2023-01-17T02:41:20.313Z,0.80
2023-01-17T02:43:51.444Z,0.80
2023-01-17T02:46:21.282Z,0.70
2023-01-17T02:48:51.471Z,0.70
2023-01-17T02:51:48.387Z,0.70
2023-01-17T02:54:35.561Z,0.60
2023-01-17T02:57:20.843Z,0.70
2023-01-17T02:59:56.366Z,0.70
2023-01-17T03:02:36.151Z,0.70
2023-01-17T03:05:10.316Z,0.70
2023-01-17T03:07:41.781Z,0.70
2023-01-17T03:10:12.722Z,0.70
2023-01-17T03:12:41.742Z,0.60
2023-01-17T03:15:13.001Z,0.60
2023-01-17T03:17:47.758Z,0.50
2023-01-17T03:20:16.623Z,0.60
2023-01-17T03:22:44.888Z,0.60
2023-01-17T03:25:13.376Z,0.50
2023-01-17T03:27:42.501Z,0.50
2023-01-17T03:30:11.903Z,0.40
2023-01-17T03:32:40.316Z,0.50
2023-01-17T03:35:10.955Z,0.50
2023-01-17T03:37:39.314Z,0.60
2023-01-17T03:40:08.745Z,0.50
2023-01-17T03:42:37.162Z,0.40
2023-01-17T03:45:06.335Z,0.30
2023-01-17T03:47:36.288Z,0.30
2023-01-17T03:50:04.879Z,0.10
2023-01-17T03:52:34.672Z,0.00
2023-01-17T03:55:03.572Z,-0.10
2023-01-17T03:57:31.968Z,-0.10
2023-01-17T04:00:00.463Z,0.00
2023-01-17T04:02:28.889Z,-0.10
2023-01-17T04:04:57.239Z,-0.10
2023-01-17T04:07:25.705Z,0.00
2023-01-17T04:09:55.479Z,0.00
2023-01-17T04:12:23.908Z,0.00
2023-01-17T04:14:52.512Z,0.10
2023-01-17T04:17:21.663Z,0.10
2023-01-17T04:19:50.064Z,0.00
2023-01-17T04:22:18.445Z,0.00
2023-01-17T04:24:46.848Z,0.00
2023-01-17T04:27:16.536Z,0.00
2023-01-17T04:29:46.729Z,0.10
2023-01-17T04:32:15.886Z,0.10
2023-01-17T04:34:44.300Z,0.10
2023-01-17T04:37:12.706Z,0.10
2023-01-17T04:39:41.063Z,0.10
2023-01-17T04:42:09.455Z,0.10
2023-01-17T04:44:40.302Z,0.20
2023-01-17T04:47:08.685Z,0.10
2023-01-17T04:49:37.075Z,0.10
2023-01-17T04:52:05.807Z,0.10
2023-01-17T04:54:34.139Z,0.10
2023-01-17T04:57:02.571Z,0.20
2023-01-17T04:59:30.874Z,0.20
2023-01-17T05:02:00.707Z,0.10
2023-01-17T05:04:29.077Z,0.10
2023-01-17T05:06:57.408Z,0.00
2023-01-17T05:09:25.834Z,0.00
2023-01-17T05:11:55.716Z,-0.10
2023-01-17T05:14:26.326Z,-0.10
2023-01-17T05:16:54.922Z,-0.10
2023-01-17T05:19:25.255Z,-0.10
2023-01-17T05:21:53.703Z,-0.10
2023-01-17T05:24:22.315Z,-0.10
2023-01-17T05:26:54.710Z,-0.20
2023-01-17T05:29:23.276Z,-0.20
2023-01-17T05:31:51.678Z,-0.20
2023-01-17T05:34:20.031Z,-0.30
2023-01-17T05:36:49.805Z,-0.30
2023-01-17T05:39:18.154Z,-0.20
2023-01-17T05:41:46.523Z,-0.20
2023-01-17T05:44:15.652Z,-0.20
2023-01-17T05:46:44.179Z,-0.30
2023-01-17T05:49:12.558Z,-0.30
2023-01-17T05:51:40.944Z,-0.30
2023-01-17T05:54:10.798Z,-0.40
2023-01-17T05:56:39.167Z,-0.40
2023-01-17T05:59:07.507Z,-0.40
2023-01-17T06:01:36.055Z,-0.40
2023-01-17T06:04:04.541Z,-0.30
2023-01-17T06:06:32.902Z,-0.40
2023-01-17T06:09:01.328Z,-0.40
2023-01-17T06:11:31.996Z,-0.50
2023-01-17T06:14:00.368Z,-0.60
2023-01-17T06:16:28.777Z,-0.70
2023-01-17T06:18:57.148Z,-0.70
2023-01-17T06:21:25.691Z,-0.70
2023-01-17T06:23:56.449Z,-0.70
2023-01-17T06:26:24.788Z,-0.70
2023-01-17T06:28:54.827Z,-0.80
2023-01-17T06:31:23.256Z,-0.80
2023-01-17T06:33:51.585Z,-0.70
2023-01-17T06:36:20.156Z,-0.60
2023-01-17T06:38:51.516Z,-0.70
2023-01-17T06:41:19.902Z,-0.80
2023-01-17T06:43:48.310Z,-0.80
2023-01-17T06:46:18.059Z,-0.80
2023-01-17T06:48:48.337Z,-0.80
2023-01-17T06:51:17.364Z,-0.70
2023-01-17T06:53:45.810Z,-0.80
2023-01-17T06:56:14.118Z,-0.90
2023-01-17T06:58:42.545Z,-1.00
2023-01-17T07:01:12.656Z,-1.00
2023-01-17T07:03:42.825Z,-0.90
2023-01-17T07:06:11.508Z,-0.90
2023-01-17T07:08:39.848Z,-1.00
2023-01-17T07:11:09.327Z,-1.00
2023-01-17T07:13:38.623Z,-1.00
2023-01-17T07:16:07.785Z,-1.10
2023-01-17T07:18:36.325Z,-1.10
2023-01-17T07:21:06.421Z,-1.20
2023-01-17T07:23:34.944Z,-1.30
2023-01-17T07:26:03.455Z,-1.30
2023-01-17T07:28:31.846Z,-1.30
2023-01-17T07:31:00.374Z,-1.30
2023-01-17T07:33:28.727Z,-1.30
2023-01-17T07:35:57.068Z,-1.40
2023-01-17T07:38:26.837Z,-1.50
2023-01-17T07:40:59.942Z,-1.50
2023-01-17T07:43:28.525Z,-1.50
2023-01-17T07:45:56.972Z,-1.30
2023-01-17T07:48:26.690Z,-1.20
2023-01-17T07:50:56.717Z,-1.30
2023-01-17T07:53:27.403Z,-1.30
2023-01-17T07:55:56.124Z,-1.40
2023-01-17T07:58:24.463Z,-1.30
2023-01-17T08:00:52.906Z,-1.20
2023-01-17T08:03:21.603Z,-1.10
2023-01-17T08:05:56.232Z,-1.10
2023-01-17T08:08:26.435Z,-1.10
2023-01-17T08:10:54.969Z,-1.10
2023-01-17T08:13:23.750Z,-1.10
2023-01-17T08:15:54.520Z,-1.00
2023-01-17T08:18:22.973Z,-0.80
2023-01-17T08:20:51.339Z,-0.80
2023-01-17T08:23:19.634Z,-0.60
2023-01-17T08:25:49.389Z,-0.50
2023-01-17T08:28:17.908Z,-0.40
2023-01-17T08:30:46.280Z,-0.30
2023-01-17T08:33:14.604Z,-0.20
2023-01-17T08:35:52.704Z,-0.10
2023-01-17T08:38:21.096Z,0.00
2023-01-17T08:40:50.925Z,0.20
2023-01-17T08:43:19.857Z,0.20
2023-01-17T08:45:48.957Z,0.30
2023-01-17T08:48:17.385Z,0.40
2023-01-17T08:50:46.324Z,0.60
2023-01-17T08:53:14.667Z,0.60
2023-01-17T08:55:43.083Z,0.70
2023-01-17T08:58:13.022Z,0.70
2023-01-17T09:00:41.445Z,0.70
2023-01-17T09:03:14.505Z,0.80
2023-01-17T09:05:42.944Z,0.80
2023-01-17T09:08:11.354Z,0.90
2023-01-17T09:10:39.639Z,0.90
2023-01-17T09:13:08.683Z,0.90
2023-01-17T09:15:38.408Z,1.10
2023-01-17T09:18:44.166Z,1.40
2023-01-17T09:21:13.386Z,1.60
2023-01-17T09:23:42.456Z,1.70
2023-01-17T09:26:19.296Z,1.90
2023-01-17T09:28:47.729Z,1.90
2023-01-17T09:31:18.060Z,2.00
2023-01-17T09:33:46.410Z,2.10
2023-01-17T09:36:14.815Z,2.20
2023-01-17T09:38:43.502Z,2.20
2023-01-17T09:41:28.578Z,2.20
2023-01-17T09:44:03.960Z,2.20
2023-01-17T09:46:38.787Z,2.20
2023-01-17T09:49:10.167Z,2.30
2023-01-17T09:51:38.723Z,2.30
2023-01-17T09:54:07.320Z,2.30
2023-01-17T09:56:40.736Z,2.40
2023-01-17T09:59:33.201Z,2.40
2023-01-17T10:02:17.152Z,2.40
2023-01-17T10:05:03.420Z,2.50
2023-01-17T10:07:40.767Z,2.60
2023-01-17T10:10:23.139Z,2.80
2023-01-17T10:12:57.484Z,2.80
2023-01-17T10:15:58.971Z,2.80
2023-01-17T10:18:59.057Z,3.00
2023-01-17T10:21:41.431Z,3.10
2023-01-17T10:24:23.646Z,3.20
2023-01-17T10:26:57.342Z,3.20
2023-01-17T10:29:30.102Z,3.10
2023-01-17T10:32:01.626Z,3.20
2023-01-17T10:34:37.450Z,3.40
2023-01-17T10:37:17.319Z,3.50
2023-01-17T10:39:48.748Z,3.60
2023-01-17T10:42:23.323Z,3.80
2023-01-17T10:44:56.589Z,3.90
2023-01-17T10:47:27.994Z,4.10
2023-01-17T10:49:59.553Z,4.00
2023-01-17T10:52:38.236Z,4.10
2023-01-17T10:55:22.013Z,4.10
2023-01-17T10:57:51.582Z,4.10
2023-01-17T11:00:40.023Z,4.20
2023-01-17T11:03:10.934Z,4.30
2023-01-17T11:05:42.943Z,4.20
2023-01-17T11:08:13.531Z,4.30
2023-01-17T11:10:44.968Z,4.40
2023-01-17T11:13:26.160Z,4.40
2023-01-17T11:15:57.915Z,4.60
2023-01-17T11:18:29.092Z,4.80
2023-01-17T11:21:12.285Z,5.00
2023-01-17T11:23:43.122Z,5.20
2023-01-17T11:26:21.522Z,5.30
2023-01-17T11:28:51.889Z,5.50
2023-01-17T11:31:30.712Z,5.40
2023-01-17T11:34:15.340Z,5.50
2023-01-17T11:36:45.930Z,5.60
2023-01-17T11:39:27.735Z,5.80
2023-01-17T11:41:56.584Z,6.10
2023-01-17T11:44:27.348Z,6.30
2023-01-17T11:47:10.999Z,6.20
2023-01-17T11:49:40.499Z,6.30
2023-01-17T11:52:12.109Z,6.10
2023-01-17T11:54:42.626Z,6.10
2023-01-17T11:57:22.197Z,6.00
2023-01-17T11:59:52.614Z,6.20
2023-01-17T12:03:00.936Z,6.20
2023-01-17T12:05:48.286Z,6.30
2023-01-17T12:08:30.533Z,6.30
2023-01-17T12:11:08.135Z,6.40
2023-01-17T12:14:03.425Z,6.40
2023-01-17T12:16:56.837Z,6.40
2023-01-17T12:19:48.945Z,6.50
2023-01-17T12:22:33.810Z,6.50
2023-01-17T12:25:25.771Z,6.40
2023-01-17T12:28:17.639Z,6.40
2023-01-17T12:31:07.010Z,6.50
2023-01-17T12:33:43.595Z,6.60
2023-01-17T12:36:30.839Z,6.70
2023-01-17T12:39:03.255Z,6.80
2023-01-17T12:41:40.217Z,7.00
2023-01-17T12:44:15.335Z,7.10
2023-01-17T12:46:49.536Z,7.00
2023-01-17T12:49:30.061Z,7.10
2023-01-17T12:52:06.549Z,7.20
2023-01-17T12:54:40.333Z,7.20
2023-01-17T12:57:16.554Z,7.00
2023-01-17T12:59:52.490Z,6.90
2023-01-17T13:02:31.334Z,6.70
2023-01-17T13:05:08.849Z,6.50
2023-01-17T13:07:45.606Z,6.50
2023-01-17T13:10:27.467Z,6.30
2023-01-17T13:13:02.244Z,6.40
2023-01-17T13:15:38.637Z,6.50
2023-01-17T13:18:11.964Z,6.40
2023-01-17T13:20:57.910Z,6.40
2023-01-17T13:23:32.300Z,6.60
2023-01-17T13:26:02.035Z,6.70
2023-01-17T13:28:43.469Z,6.80
2023-01-17T13:31:34.332Z,7.20
2023-01-17T13:34:16.865Z,7.60
2023-01-17T13:36:57.862Z,8.10
2023-01-17T13:39:52.488Z,8.50
2023-01-17T13:42:26.694Z,8.70
2023-01-17T13:44:57.994Z,8.80
2023-01-17T13:47:43.035Z,8.60
2023-01-17T13:50:46.980Z,8.50
2023-01-17T13:53:57.823Z,8.60
2023-01-17T13:56:37.031Z,8.10
2023-01-17T13:59:28.517Z,8.10
2023-01-17T14:01:58.804Z,8.00
2023-01-17T14:05:11.327Z,7.80
2023-01-17T14:07:47.754Z,7.70
2023-01-17T14:10:31.490Z,7.70
2023-01-17T14:13:00.913Z,7.20
2023-01-17T14:15:32.585Z,6.90
2023-01-17T14:18:03.987Z,6.50
2023-01-17T14:21:05.307Z,6.30
2023-01-17T14:24:01.312Z,6.40
2023-01-17T14:26:58.967Z,6.40
2023-01-17T14:29:48.841Z,6.40
2023-01-17T14:32:20.137Z,6.60
2023-01-17T14:34:51.768Z,6.60
2023-01-17T14:37:31.786Z,6.60
2023-01-17T14:40:02.172Z,6.60
2023-01-17T14:42:32.306Z,6.50
2023-01-17T14:45:04.176Z,6.30
2023-01-17T14:47:35.320Z,6.10
2023-01-17T14:50:20.142Z,5.80
2023-01-17T14:52:48.743Z,5.50
2023-01-17T14:55:19.469Z,5.40
2023-01-17T14:57:56.658Z,5.20
2023-01-17T15:00:29.325Z,4.90
2023-01-17T15:03:00.143Z,4.70
2023-01-17T15:05:31.382Z,4.50
2023-01-17T15:08:00.281Z,4.30
2023-01-17T15:10:32.485Z,4.10
2023-01-17T15:13:09.016Z,3.90
2023-01-17T15:15:39.978Z,3.80
2023-01-17T15:18:29.450Z,3.60
2023-01-17T15:21:03.601Z,3.50
2023-01-17T15:23:35.252Z,3.30
2023-01-17T15:26:07.520Z,3.20
2023-01-17T15:28:36.682Z,3.00
2023-01-17T15:31:10.365Z,2.80
2023-01-17T15:33:41.488Z,2.60
2023-01-17T15:36:18.150Z,2.40
2023-01-17T15:38:53.824Z,2.20
2023-01-17T15:41:24.824Z,2.00
2023-01-17T15:43:57.536Z,1.70
2023-01-17T15:46:31.600Z,1.50
2023-01-17T15:49:18.405Z,1.30
2023-01-17T15:51:56.495Z,1.30
2023-01-17T15:54:36.779Z,1.30
2023-01-17T15:57:18.113Z,1.20
2023-01-17T15:59:49.163Z,1.20
2023-01-17T16:02:42.979Z,1.10
2023-01-17T16:05:41.940Z,1.10
2023-01-17T16:08:31.646Z,1.00
2023-01-17T16:11:02.933Z,0.90
2023-01-17T16:13:32.786Z,0.90
2023-01-17T16:16:19.241Z,0.90
2023-01-17T16:18:49.167Z,0.80
2023-01-17T16:21:23.898Z,0.70
2023-01-17T16:23:54.130Z,0.70
2023-01-17T16:26:22.579Z,0.70
2023-01-17T16:28:51.629Z,0.70
2023-01-17T16:31:20.087Z,0.70
2023-01-17T16:33:51.194Z,0.60
2023-01-17T16:36:21.247Z,0.40
2023-01-17T16:38:52.491Z,0.20
2023-01-17T16:41:22.662Z,0.10
2023-01-17T16:44:02.887Z,0.00
2023-01-17T16:46:31.572Z,-0.20
2023-01-17T16:49:01.664Z,-0.30
2023-01-17T16:51:30.202Z,-0.50
2023-01-17T16:53:58.690Z,-0.50
2023-01-17T16:56:28.540Z,-0.50
2023-01-17T16:58:56.923Z,-0.60
2023-01-17T17:01:25.615Z,-0.50
2023-01-17T17:03:54.084Z,-0.50
2023-01-17T17:06:22.407Z,-0.80
2023-01-17T17:08:50.823Z,-0.90
2023-01-17T17:11:20.405Z,-1.00
2023-01-17T17:13:51.366Z,-0.90
2023-01-17T17:16:21.999Z,-1.00
2023-01-17T17:18:56.794Z,-1.00
2023-01-17T17:21:25.294Z,-1.20
2023-01-17T17:23:56.957Z,-1.20
2023-01-17T17:26:27.531Z,-1.20
2023-01-17T17:28:57.482Z,-1.20
2023-01-17T17:31:26.232Z,-1.30
2023-01-17T17:33:58.587Z,-1.40
2023-01-17T17:36:26.984Z,-1.50
2023-01-17T17:38:56.680Z,-1.60
2023-01-17T17:41:26.782Z,-1.60
2023-01-17T17:43:57.233Z,-1.60
2023-01-17T17:46:27.262Z,-1.60
2023-01-17T17:48:56.120Z,-1.50
2023-01-17T17:51:26.485Z,-1.50
2023-01-17T17:53:55.753Z,-1.40
2023-01-17T17:56:24.825Z,-1.30
2023-01-17T17:58:53.791Z,-1.30
2023-01-17T18:01:24.152Z,-1.40
2023-01-17T18:03:52.926Z,-1.50
2023-01-17T18:06:22.101Z,-1.60
2023-01-17T18:08:52.201Z,-1.60
2023-01-17T18:11:26.169Z,-1.70
2023-01-17T18:13:56.478Z,-1.80
2023-01-17T18:16:28.445Z,-1.80
2023-01-17T18:18:59.437Z,-1.80
2023-01-17T18:21:29.507Z,-1.60
2023-01-17T18:23:59.877Z,-1.50
2023-01-17T18:26:29.997Z,-1.40
2023-01-17T18:29:00.130Z,-1.30
2023-01-17T18:31:31.146Z,-1.50
2023-01-17T18:34:01.251Z,-1.40
2023-01-17T18:36:29.901Z,-1.40
2023-01-17T18:38:58.799Z,-1.40
2023-01-17T18:41:28.974Z,-1.50
2023-01-17T18:43:57.680Z,-1.50
2023-01-17T18:46:27.681Z,-1.50
2023-01-17T18:48:58.559Z,-1.50
2023-01-17T18:51:29.281Z,-1.30
2023-01-17T18:53:58.140Z,-1.20
2023-01-17T18:56:29.640Z,-1.00
2023-01-17T18:58:58.404Z,-0.90
2023-01-17T19:01:29.214Z,-0.80
2023-01-17T19:04:00.533Z,-0.80
2023-01-17T19:06:32.597Z,-0.80
2023-01-17T19:09:01.644Z,-0.70
2023-01-17T19:11:31.202Z,-0.70
2023-01-17T19:13:59.532Z,-0.60
2023-01-17T19:16:30.842Z,-0.70
2023-01-17T19:19:04.874Z,-0.80
2023-01-17T19:21:34.033Z,-0.90
2023-01-17T19:24:05.832Z,-1.00
2023-01-17T19:26:34.333Z,-1.10
2023-01-17T19:29:04.421Z,-1.10
2023-01-17T19:31:35.278Z,-1.10
2023-01-17T19:34:05.680Z,-1.00
2023-01-17T19:36:35.758Z,-1.10
2023-01-17T19:39:06.702Z,-1.20
2023-01-17T19:44:09.447Z,-1.20
2023-01-17T19:46:38.908Z,-1.00
2023-01-17T19:49:09.830Z,-1.00
2023-01-17T19:51:39.536Z,-0.90
2023-01-17T19:54:08.520Z,-0.80
2023-01-17T19:56:38.970Z,-0.80
2023-01-17T19:59:07.432Z,-0.80
2023-01-17T20:01:36.434Z,-0.90
2023-01-17T20:04:06.134Z,-1.00
2023-01-17T20:06:37.265Z,-1.00
2023-01-17T20:09:07.506Z,-1.20
2023-01-17T20:11:36.172Z,-1.30
2023-01-17T20:14:05.612Z,-1.40
2023-01-17T20:16:36.022Z,-1.40
2023-01-17T20:19:05.738Z,-1.60
2023-01-17T20:21:35.465Z,-1.70
2023-01-17T20:24:04.850Z,-1.60
2023-01-17T20:26:37.597Z,-1.50
2023-01-17T20:29:10.251Z,-1.50
2023-01-17T20:31:39.543Z,-1.40
2023-01-17T20:34:10.018Z,-1.30
2023-01-17T20:36:41.274Z,-1.20
2023-01-17T20:39:11.055Z,-1.20
2023-01-17T20:41:41.205Z,-1.20
2023-01-17T20:44:13.939Z,-1.20
2023-01-17T20:46:43.636Z,-1.10
2023-01-17T20:49:15.576Z,-1.10
2023-01-17T20:51:46.220Z,-1.10
2023-01-17T20:54:16.442Z,-1.10
2023-01-17T20:56:47.563Z,-1.10
2023-01-17T20:59:19.621Z,-1.10
2023-01-17T21:01:48.471Z,-1.20
2023-01-17T21:04:18.014Z,-1.20
2023-01-17T21:06:46.563Z,-1.10
2023-01-17T21:09:17.322Z,-1.10
2023-01-17T21:11:45.740Z,-0.90
2023-01-17T21:14:14.176Z,-0.70
2023-01-17T21:16:44.754Z,-0.60
2023-01-17T21:19:16.007Z,-0.50
2023-01-17T21:21:44.441Z,-0.50
2023-01-17T21:24:16.387Z,-0.50
2023-01-17T21:26:46.695Z,-0.50
2023-01-17T21:29:16.129Z,-0.50
2023-01-17T21:31:46.145Z,-0.60
2023-01-17T21:34:14.832Z,-0.60
2023-01-17T21:36:44.257Z,-0.50
2023-01-17T21:39:15.848Z,-0.50
2023-01-17T21:41:46.750Z,-0.40
2023-01-17T21:44:36.516Z,-0.50
2023-01-17T21:47:07.185Z,-0.60
2023-01-17T21:49:35.828Z,-0.70
2023-01-17T21:52:20.635Z,-0.80
2023-01-17T21:55:06.506Z,-0.80
2023-01-17T21:57:52.427Z,-0.90
2023-01-17T22:00:20.978Z,-0.90
2023-01-17T22:02:50.747Z,-0.90
2023-01-17T22:05:19.367Z,-0.80
2023-01-17T22:08:01.783Z,-0.80
2023-01-17T22:10:30.283Z,-0.80
2023-01-17T22:12:58.645Z,-0.80
2023-01-17T22:15:27.094Z,-0.80
2023-01-17T22:17:57.133Z,-1.00
2023-01-17T22:20:25.668Z,-1.10
2023-01-17T22:22:55.918Z,-1.20
2023-01-17T22:25:24.481Z,-1.30
2023-01-17T22:27:52.960Z,-1.40
2023-01-17T22:30:21.477Z,-1.30
2023-01-17T22:32:49.907Z,-1.50
2023-01-17T22:35:19.725Z,-1.70
2023-01-17T22:37:48.054Z,-1.80
2023-01-17T22:40:16.747Z,-1.80
2023-01-17T22:42:45.123Z,-1.70
2023-01-17T22:45:13.769Z,-1.70
2023-01-17T22:47:42.143Z,-1.60
2023-01-17T22:50:12.290Z,-1.80
2023-01-17T22:52:42.352Z,-1.80
2023-01-17T22:55:12.175Z,-1.70
2023-01-17T22:57:40.583Z,-1.80
2023-01-17T23:00:14.616Z,-1.90
2023-01-17T23:02:44.323Z,-2.00
2023-01-17T23:05:12.833Z,-2.10
2023-01-17T23:07:45.283Z,-2.10
2023-01-17T23:10:34.925Z,-2.20
2023-01-17T23:13:03.287Z,-2.20
2023-01-17T23:15:49.078Z,-2.20
2023-01-17T23:18:35.032Z,-2.10
2023-01-17T23:21:04.175Z,-2.10
2023-01-17T23:23:34.699Z,-1.80
2023-01-17T23:26:03.106Z,-1.70
2023-01-17T23:28:30.441Z,-1.80
2023-01-17T23:31:05.850Z,-1.70
2023-01-17T23:33:34.250Z,-1.50
2023-01-17T23:36:03.481Z,-1.60
2023-01-17T23:38:34.005Z,-1.80
2023-01-17T23:41:24.284Z,-1.80
2023-01-17T23:43:53.635Z,-1.90
2023-01-17T23:46:22.827Z,-2.10
2023-01-17T23:48:51.258Z,-2.20
2023-01-17T23:51:19.709Z,-2.30
2023-01-17T23:53:48.122Z,-2.40
2023-01-17T23:56:20.698Z,-2.50
2023-01-17T23:58:49.099Z,-2.50
